This is the latest recevied weather packets stored in our database for station/object AA8FM-13. If no packets are shown the sender has not sent any weather packets the latest 10 day(s).
| Time | Temp. | Humidity | Pressure | Rain* | Wind** | Luminosity | Snow |
|---|---|---|---|---|---|---|---|
| 1778080218 | 15° C | 99% | 1005.6 hPa | 1.27 mm | - | 42 W/m² | - |
| 1778079914 | 15° C | 99% | 1005.7 hPa | 0 mm | - | 31 W/m² | - |
| 1778079612 | 15° C | 99% | 1005.6 hPa | 0 mm | - | 45 W/m² | - |
| 1778079308 | 15° C | 99% | 1005.6 hPa | 0 mm | - | 52 W/m² | - |
| 1778079006 | 15° C | 99% | 1005.5 hPa | 0 mm | - | 43 W/m² | - |
| 1778078702 | 15° C | 99% | 1005.5 hPa | 0 mm | - | 30 W/m² | - |
| 1778078400 | 15° C | 99% | 1005.4 hPa | 0 mm | - | 27 W/m² | - |
| 1778078097 | 15° C | 99% | 1005.4 hPa | 0 mm | - | 30 W/m² | - |
| 1778077795 | 15° C | 99% | 1005.4 hPa | 0 mm | - | 39 W/m² | - |
| 1778077493 | 15° C | 99% | 1005.2 hPa | 0 mm | - | 45 W/m² | - |
| 1778077190 | 15° C | 99% | 1004.9 hPa | 0 mm | - | 48 W/m² | - |
| 1778076888 | 15° C | 99% | 1005.1 hPa | 0 mm | - | 44 W/m² | - |
| 1778076587 | 15° C | 99% | 1004.6 hPa | 0 mm | - | 58 W/m² | - |
| 1778076283 | 15° C | 99% | 1004.8 hPa | 0 mm | - | 44 W/m² | - |
| 1778075980 | 15° C | 99% | 1004.9 hPa | 0 mm | - | 41 W/m² | - |
| 1778075678 | 15° C | 99% | 1005 hPa | 0 mm | - | 36 W/m² | - |
| 1778075373 | 15° C | 99% | 1004.9 hPa | 0 mm | - | 33 W/m² | - |
| 1778075069 | 14.44° C | 99% | 1005.1 hPa | 0 mm | - | 29 W/m² | - |
| 1778074767 | 14.44° C | 99% | 1005 hPa | 0 mm | - | 32 W/m² | - |
| 1778074464 | 14.44° C | 99% | 1004.9 hPa | 0 mm | - | 30 W/m² | - |
| 1778074160 | 14.44° C | 99% | 1005.2 hPa | 0 mm | - | 30 W/m² | - |
| 1778073857 | 14.44° C | 99% | 1004.9 hPa | 0 mm | - | 36 W/m² | - |
| 1778073555 | 14.44° C | 99% | 1004.9 hPa | 0 mm | - | 52 W/m² | - |
| 1778073251 | 13.89° C | 99% | 1005 hPa | 0 mm | - | 30 W/m² | - |
| 1778072948 | 13.89° C | 99% | 1005 hPa | 0 mm | - | 30 W/m² | - |
* Rain latest hour (hover to see other rain measurements)
** Current wind speed in m/s (hover to see current wind gust speed)